Time;durP1;ratioP1;P1;durP2;ratioP2;P2;SDS_P1;SDS_P2;PMS_P1;PMS_P2;Temp;Humidity;BMP_temperature;BMP_pressure;BME280_temperature;BME280_humidity;BME280_pressure;Samples;Min_cycle;Max_cycle;Signal;HPM_P1;HPM_P2
2023/03/07 00:01:58;;;;;;;13.47;10.93;;;;;;;1.78;50.08;98698.75;10467712;28;20228;-37
2023/03/07 00:07:00;;;;;;;16.67;10.03;;;;;;;2.80;48.79;98646.91;10474540;28;20250;-37
2023/03/07 00:12:03;;;;;;;11.83;9.23;;;;;;;2.50;49.19;98675.56;10470809;28;20298;-37
2023/03/07 00:17:04;;;;;;;13.03;10.13;;;;;;;2.78;49.44;98653.34;10474393;28;20245;-39
2023/03/07 00:22:06;;;;;;;13.13;10.00;;;;;;;3.03;48.63;98646.34;10471685;28;20227;-37
2023/03/07 00:27:08;;;;;;;12.63;9.80;;;;;;;2.27;49.99;98692.94;10480460;28;20249;-38
2023/03/07 00:32:09;;;;;;;11.63;9.10;;;;;;;2.93;48.71;98633.25;10473540;28;20258;-39
2023/03/07 00:37:13;;;;;;;14.20;9.90;;;;;;;2.74;49.18;98644.94;10475248;28;20308;-37
2023/03/07 00:42:15;;;;;;;12.43;10.00;;;;;;;2.96;48.63;98624.19;10470600;28;20232;-38
2023/03/07 00:47:17;;;;;;;11.07;9.27;;;;;;;1.90;50.09;98691.41;10467748;28;20259;-38
2023/03/07 00:52:19;;;;;;;13.20;10.27;;;;;;;2.75;49.22;98658.97;10465795;28;20250;-39
2023/03/07 00:57:21;;;;;;;14.40;10.07;;;;;;;2.08;50.76;98688.69;10468134;28;20246;-38
2023/03/07 01:02:22;;;;;;;10.53;8.37;;;;;;;1.45;52.52;98718.75;10470283;28;20756;-39
2023/03/07 01:07:24;;;;;;;15.60;10.47;;;;;;;2.42;51.09;98638.56;10466472;28;20609;-38
2023/03/07 01:12:26;;;;;;;18.47;11.33;;;;;;;2.79;51.07;98605.66;10473428;28;20427;-39
2023/03/07 01:17:27;;;;;;;14.83;10.50;;;;;;;1.41;52.44;98662.84;10474838;28;20234;-36
2023/03/07 01:22:31;;;;;;;17.10;10.77;;;;;;;2.41;52.17;98621.03;10472857;28;20269;-38
2023/03/07 01:27:32;;;;;;;13.37;10.33;;;;;;;2.19;53.49;98634.81;10471240;28;20234;-36
2023/03/07 01:32:34;;;;;;;32.17;10.10;;;;;;;1.67;53.94;98633.88;10472218;28;20231;-38
2023/03/07 01:37:36;;;;;;;13.50;11.10;;;;;;;2.22;53.66;98603.66;10473857;28;20234;-39
2023/03/07 01:42:38;;;;;;;14.90;11.00;;;;;;;2.00;55.05;98620.88;10469007;28;20228;-39
2023/03/07 01:47:42;;;;;;;15.90;11.80;;;;;;;2.47;54.76;98566.78;10472977;28;20238;-37
2023/03/07 01:52:48;;;;;;;14.70;11.13;;;;;;;1.98;55.75;98583.28;10468474;28;20239;-38
2023/03/07 01:57:52;;;;;;;16.53;11.43;;;;;;;0.90;57.84;98635.34;10473517;28;20250;-39
2023/03/07 02:03:20;;;;;;;15.60;12.27;;;;;;;2.05;56.62;98549.97;10464968;28;20232;-38
2023/03/07 02:08:25;;;;;;;15.73;11.17;;;;;;;1.53;56.88;98550.88;10467009;28;20253;-37
2023/03/07 02:13:27;;;;;;;16.23;11.87;;;;;;;2.44;55.65;98496.63;10467400;28;20234;-38
2023/03/07 02:18:32;;;;;;;15.93;11.17;;;;;;;1.13;57.68;98560.13;10469914;28;20740;-36
2023/03/07 02:23:46;;;;;;;14.03;11.00;;;;;;;2.11;56.56;98496.56;10469825;28;20230;-38
2023/03/07 02:28:48;;;;;;;14.47;10.83;;;;;;;2.97;55.28;98440.84;10469038;28;20230;-37
2023/03/07 02:33:50;;;;;;;13.97;11.57;;;;;;;2.43;55.24;98452.72;10466052;28;20314;-37
2023/03/07 02:38:55;;;;;;;13.17;10.10;;;;;;;2.51;55.09;98447.44;10471564;28;20231;-38
2023/03/07 02:43:57;;;;;;;17.30;11.97;;;;;;;2.90;54.94;98428.25;10471632;28;20227;-38
2023/03/07 02:48:59;;;;;;;16.33;11.00;;;;;;;3.41;54.28;98416.59;10472112;28;20232;-39
2023/03/07 02:54:01;;;;;;;16.87;11.00;;;;;;;2.70;54.12;98433.09;10466252;28;20333;-38
2023/03/07 02:59:03;;;;;;;16.07;11.13;;;;;;;1.82;56.59;98481.13;10473421;28;20334;-37
2023/03/07 03:04:04;;;;;;;16.17;10.77;;;;;;;1.93;57.31;98456.28;10467087;28;20822;-36
2023/03/07 03:09:06;;;;;;;16.60;11.03;;;;;;;1.97;57.42;98439.13;10467955;28;20249;-38
2023/03/07 03:14:08;;;;;;;17.53;11.20;;;;;;;1.04;59.02;98482.84;10468114;28;20247;-36
2023/03/07 03:19:10;;;;;;;15.10;11.53;;;;;;;2.48;55.67;98409.97;10466493;28;21288;-39
2023/03/07 03:24:11;;;;;;;16.23;11.83;;;;;;;1.83;56.55;98456.41;10466623;28;20685;-39
2023/03/07 03:29:13;;;;;;;14.67;11.23;;;;;;;2.89;53.77;98391.47;10466891;28;20235;-39
2023/03/07 03:34:15;;;;;;;15.47;11.33;;;;;;;1.08;56.21;98496.53;10464530;28;20256;-38
2023/03/07 03:39:17;;;;;;;12.70;9.97;;;;;;;2.03;55.11;98445.56;10465356;28;20232;-38
2023/03/07 03:44:19;;;;;;;14.23;10.53;;;;;;;1.06;55.91;98465.06;10466681;28;20227;-39
2023/03/07 03:49:21;;;;;;;13.03;9.87;;;;;;;2.73;53.62;98402.88;10461838;28;20934;-37
2023/03/07 03:54:23;;;;;;;14.83;10.60;;;;;;;2.05;54.04;98441.78;10469176;28;20239;-38
2023/03/07 03:59:25;;;;;;;14.40;10.20;;;;;;;2.40;54.60;98429.31;10465091;28;20503;-38
2023/03/07 04:04:27;;;;;;;13.23;10.47;;;;;;;3.07;53.10;98399.19;10450579;28;20247;-37
2023/03/07 04:09:29;;;;;;;13.00;9.93;;;;;;;2.43;54.35;98412.28;10427808;28;20323;-39
2023/03/07 04:14:31;;;;;;;14.53;10.17;;;;;;;1.53;54.75;98444.59;10472829;28;20401;-37
2023/03/07 04:19:33;;;;;;;15.53;9.73;;;;;;;2.38;53.99;98414.59;10473805;28;20282;-38
2023/03/07 04:24:35;;;;;;;12.37;9.73;;;;;;;2.43;53.87;98402.53;10477418;28;20234;-41
2023/03/07 04:29:36;;;;;;;14.53;9.73;;;;;;;2.15;52.65;98416.06;10447615;28;20228;-40
2023/03/07 04:34:38;;;;;;;13.50;9.43;;;;;;;1.38;53.78;98458.34;10474810;28;20235;-38
2023/03/07 04:39:40;;;;;;;13.43;10.03;;;;;;;2.29;51.75;98433.06;10469598;28;20236;-41
2023/03/07 04:44:42;;;;;;;11.47;8.47;;;;;;;2.01;53.64;98431.72;10469727;28;20224;-37
2023/03/07 04:49:44;;;;;;;12.37;9.97;;;;;;;2.31;51.87;98409.97;10466111;28;20624;-36
2023/03/07 04:54:45;;;;;;;11.83;9.97;;;;;;;2.08;52.13;98437.97;10471334;28;20571;-40
2023/03/07 04:59:47;;;;;;;11.63;8.40;;;;;;;3.01;51.18;98391.97;10471682;28;20239;-36
2023/03/07 05:04:49;;;;;;;13.50;9.67;;;;;;;2.37;51.64;98416.44;10465951;28;20227;-39
2023/03/07 05:09:50;;;;;;;14.53;9.63;;;;;;;2.68;51.39;98390.16;10464705;28;20232;-36
2023/03/07 05:14:52;;;;;;;12.40;9.30;;;;;;;1.92;52.63;98438.78;10463058;28;20326;-36
2023/03/07 05:19:54;;;;;;;13.47;9.50;;;;;;;2.28;51.73;98404.19;10468125;28;20686;-38
2023/03/07 05:24:57;;;;;;;12.50;9.00;;;;;;;2.44;52.25;98398.94;10472486;28;20631;-37
2023/03/07 05:29:59;;;;;;;11.80;9.77;;;;;;;1.74;53.22;98460.00;10476810;28;20737;-37
2023/03/07 05:35:01;;;;;;;12.10;9.57;;;;;;;1.48;53.26;98466.16;10468838;28;20246;-37
2023/03/07 05:40:07;;;;;;;8.67;7.13;;;;;;;1.17;53.71;98457.88;10468687;28;20626;-42
2023/03/07 05:45:10;;;;;;;11.10;9.07;;;;;;;1.87;52.65;98412.88;10470492;28;20595;-41
2023/03/07 05:50:12;;;;;;;11.63;8.10;;;;;;;1.55;52.52;98429.44;10468945;28;20231;-39
2023/03/07 05:55:14;;;;;;;15.33;9.50;;;;;;;2.65;51.80;98379.94;10470829;28;20636;-37
2023/03/07 06:00:16;;;;;;;12.83;9.40;;;;;;;2.14;51.82;98393.28;10469341;28;20227;-41
2023/03/07 06:05:18;;;;;;;11.90;8.73;;;;;;;2.07;51.79;98394.13;10453155;28;20238;-37
2023/03/07 06:10:20;;;;;;;10.73;8.57;;;;;;;2.29;51.15;98390.03;10447856;28;20244;-39
2023/03/07 06:15:22;;;;;;;13.93;9.10;;;;;;;2.38;50.99;98398.75;10464333;28;20227;-38
2023/03/07 06:20:25;;;;;;;11.97;9.60;;;;;;;2.06;51.17;98403.84;10470980;28;20318;-37
2023/03/07 06:25:27;;;;;;;15.47;9.77;;;;;;;2.79;50.75;98380.22;10470679;28;20851;-42
2023/03/07 06:30:29;;;;;;;11.57;9.17;;;;;;;3.29;49.06;98397.63;10471074;28;20330;-38
2023/03/07 06:35:30;;;;;;;11.60;9.70;;;;;;;2.80;49.89;98405.66;10472794;28;20260;-42
2023/03/07 06:40:32;;;;;;;12.90;9.33;;;;;;;2.30;50.77;98426.00;10470032;28;20897;-38
2023/03/07 06:45:35;;;;;;;12.53;9.07;;;;;;;1.66;51.59;98446.78;10462211;28;20243;-37
2023/03/07 06:50:37;;;;;;;12.67;9.27;;;;;;;2.79;50.94;98404.84;10469871;28;20250;-37
2023/03/07 06:55:39;;;;;;;12.50;9.60;;;;;;;2.68;50.47;98406.00;10468247;28;20227;-36
2023/03/07 07:00:40;;;;;;;12.03;8.73;;;;;;;2.58;50.35;98420.38;10466170;28;20227;-37
2023/03/07 07:05:42;;;;;;;12.63;9.27;;;;;;;2.12;50.96;98441.97;10472777;28;20788;-42
2023/03/07 07:10:44;;;;;;;11.90;8.57;;;;;;;2.26;50.83;98433.41;10468295;28;20248;-38
2023/03/07 07:15:46;;;;;;;13.23;9.00;;;;;;;3.16;49.66;98394.69;10461336;28;20712;-42
2023/03/07 07:20:54;;;;;;;13.43;9.90;;;;;;;2.44;50.74;98432.44;10468274;28;20243;-39
2023/03/07 07:25:56;;;;;;;13.67;9.07;;;;;;;2.60;50.37;98434.25;10453200;28;20736;-41
2023/03/07 07:30:58;;;;;;;11.53;8.37;;;;;;;2.46;49.68;98438.38;10464021;28;20800;-37
2023/03/07 07:36:00;;;;;;;13.70;8.97;;;;;;;3.48;49.24;98420.22;10461847;28;20231;-40
2023/03/07 07:41:03;;;;;;;12.00;8.83;;;;;;;3.47;49.21;98429.16;10465329;28;20723;-39
2023/03/07 07:46:05;;;;;;;10.93;8.37;;;;;;;3.07;49.54;98429.09;10467137;28;20232;-41
2023/03/07 07:51:06;;;;;;;10.07;7.93;;;;;;;2.65;50.45;98439.84;10477594;28;20254;-41
2023/03/07 07:56:08;;;;;;;11.53;8.40;;;;;;;3.21;49.70;98413.50;10472869;28;20231;-38
2023/03/07 08:01:18;;;;;;;10.33;8.53;;;;;;;3.09;50.25;98423.63;10466210;28;20231;-41
2023/03/07 08:06:23;;;;;;;11.63;8.90;;;;;;;2.65;49.90;98431.94;10472957;28;20231;-36
2023/03/07 08:11:26;;;;;;;10.73;8.20;;;;;;;2.56;50.78;98448.78;10476985;28;20272;-40
2023/03/07 08:16:27;;;;;;;11.57;8.20;;;;;;;2.80;48.93;98442.66;10476478;28;20230;-40
2023/03/07 08:21:29;;;;;;;11.67;8.93;;;;;;;3.31;48.91;98411.53;10459734;28;20250;-39
2023/03/07 08:26:31;;;;;;;11.60;9.07;;;;;;;2.84;48.99;98428.13;10466720;28;20243;-36
2023/03/07 08:31:32;;;;;;;11.87;9.27;;;;;;;3.04;49.61;98433.88;10466852;28;20247;-43
2023/03/07 08:36:34;;;;;;;12.97;9.73;;;;;;;3.44;49.13;98414.44;10468394;28;20297;-36
2023/03/07 08:41:37;;;;;;;14.50;9.37;;;;;;;3.26;48.29;98422.59;10466740;28;20247;-38
2023/03/07 08:46:38;;;;;;;11.00;8.50;;;;;;;2.10;48.90;98451.88;10472140;28;20700;-40
2023/03/07 08:51:40;;;;;;;11.47;8.70;;;;;;;4.17;47.38;98419.50;10455409;28;20246;-37
2023/03/07 08:56:42;;;;;;;11.80;8.03;;;;;;;2.48;48.11;98445.13;10457071;28;20239;-39
2023/03/07 09:01:44;;;;;;;9.97;7.87;;;;;;;4.31;47.32;98418.75;10457788;28;20799;-40
2023/03/07 09:06:46;;;;;;;10.93;7.87;;;;;;;4.70;46.61;98425.75;10477067;28;20316;-44
2023/03/07 09:11:47;;;;;;;11.03;8.10;;;;;;;3.25;47.77;98428.88;10471331;28;20247;-37
2023/03/07 09:16:49;;;;;;;12.63;7.57;;;;;;;3.89;47.02;98429.78;10471681;28;20585;-38
2023/03/07 09:21:51;;;;;;;11.43;8.03;;;;;;;3.07;47.66;98438.84;10472465;28;20724;-40
2023/03/07 09:26:52;;;;;;;10.40;7.60;;;;;;;3.87;46.85;98415.88;10475501;28;20231;-38
2023/03/07 09:31:54;;;;;;;11.73;8.73;;;;;;;4.60;46.06;98422.53;10472844;28;20247;-37
2023/03/07 09:36:56;;;;;;;10.30;8.07;;;;;;;4.26;46.05;98431.69;10474099;28;20231;-37
2023/03/07 09:42:35;;;;;;;10.50;7.50;;;;;;;4.08;45.35;98423.22;10470782;28;20608;-41
2023/03/07 09:47:42;;;;;;;10.10;8.03;;;;;;;4.50;44.59;98421.94;10474061;28;20721;-38
2023/03/07 09:52:44;;;;;;;10.47;5.97;;;;;;;3.25;45.65;98450.03;10475089;28;20243;-38
2023/03/07 09:57:50;;;;;;;9.17;6.33;;;;;;;4.39;43.90;98428.50;10466804;28;20234;-37
2023/03/07 10:02:52;;;;;;;10.10;8.20;;;;;;;4.69;44.20;98424.09;10475136;28;20725;-42
2023/03/07 10:07:54;;;;;;;10.30;8.03;;;;;;;5.17;44.07;98421.16;10472104;28;20243;-38
2023/03/07 10:13:03;;;;;;;14.70;8.07;;;;;;;3.80;44.59;98429.81;10473760;28;20231;-38
2023/03/07 10:18:29;;;;;;;11.40;8.73;;;;;;;4.24;44.09;98412.53;10466177;28;20241;-37
2023/03/07 10:23:51;;;;;;;10.07;7.53;;;;;;;5.28;43.10;98409.25;10465966;28;20235;-37
2023/03/07 10:28:55;;;;;;;15.77;10.73;;;;;;;4.57;43.78;98407.78;10448035;28;21676;-38
2023/03/07 10:33:57;;;;;;;30.43;19.70;;;;;;;5.27;43.26;98404.97;10468854;28;20238;-39
2023/03/07 10:39:14;;;;;;;9.67;7.50;;;;;;;4.24;43.82;98412.53;10472077;28;20246;-37
2023/03/07 10:44:18;;;;;;;12.53;8.97;;;;;;;5.43;42.86;98418.03;10465886;28;20224;-38
2023/03/07 10:49:27;;;;;;;10.40;8.03;;;;;;;3.87;44.75;98410.59;10468087;28;20235;-37
2023/03/07 10:54:31;;;;;;;13.73;9.73;;;;;;;5.54;43.09;98399.97;10466721;28;20326;-39
2023/03/07 10:59:34;;;;;;;9.00;6.87;;;;;;;3.55;45.10;98407.94;10468543;28;20260;-37
2023/03/07 11:06:34;;;;;;;10.67;7.67;;;;;;;2.76;47.52;98377.94;10435099;28;21263;-62
2023/03/07 11:11:37;;;;;;;9.30;7.10;;;;;;;3.10;46.32;98394.38;10389289;28;20612;-63
2023/03/07 11:16:51;;;;;;;9.60;7.60;;;;;;;4.64;44.91;98344.31;10392825;28;20266;-63
2023/03/07 11:21:55;;;;;;;9.40;7.17;;;;;;;3.24;45.39;98379.66;10425111;28;20228;-64
2023/03/07 11:26:58;;;;;;;9.57;7.33;;;;;;;3.98;44.68;98360.72;10425621;28;20227;-63
2023/03/07 11:32:23;;;;;;;9.23;7.33;;;;;;;3.21;44.60;98380.00;10427512;28;20611;-63
2023/03/07 11:37:37;;;;;;;8.37;6.93;;;;;;;3.86;43.83;98364.78;10420627;28;20231;-63
2023/03/07 11:42:53;;;;;;;9.80;6.67;;;;;;;4.21;43.74;98354.59;10420233;28;20788;-64
2023/03/07 11:48:52;;;;;;;9.70;6.60;;;;;;;4.09;44.08;98356.84;10423464;28;20240;-63
2023/03/07 11:54:05;;;;;;;8.90;6.10;;;;;;;3.43;43.92;98370.47;10335158;28;20703;-63
2023/03/07 11:59:12;;;;;;;9.33;6.33;;;;;;;4.04;43.74;98361.84;10404309;28;20244;-63
2023/03/07 12:04:29;;;;;;;10.10;6.83;;;;;;;4.53;42.98;98337.63;10422010;28;20238;-63
2023/03/07 12:09:47;;;;;;;9.03;6.90;;;;;;;3.87;43.41;98363.78;10422849;28;20745;-63
2023/03/07 12:14:55;;;;;;;6.77;5.70;;;;;;;4.08;43.56;98341.16;10413924;28;20245;-63
2023/03/07 12:19:59;;;;;;;9.97;5.47;;;;;;;3.09;43.51;98353.09;10394943;28;20236;-63
2023/03/07 12:25:08;;;;;;;8.60;5.97;;;;;;;5.24;41.47;98317.81;10396959;28;20259;-63
2023/03/07 12:30:19;;;;;;;6.47;5.03;;;;;;;4.05;42.76;98330.91;10397709;28;20283;-63
2023/03/07 12:35:50;;;;;;;6.40;5.10;;;;;;;4.65;42.48;98314.16;10392211;28;20240;-64
2023/03/07 12:41:30;;;;;;;7.37;5.97;;;;;;;4.45;41.87;98313.06;10405015;28;20374;-62
2023/03/07 12:46:42;;;;;;;6.93;5.53;;;;;;;4.93;41.93;98311.72;10398675;28;20623;-64
2023/03/07 12:51:56;;;;;;;5.80;5.00;;;;;;;4.68;41.62;98315.66;10406258;28;20237;-63
2023/03/07 12:57:39;;;;;;;6.10;4.83;;;;;;;4.80;41.49;98313.38;10401167;28;20236;-63
2023/03/07 13:02:48;;;;;;;7.33;5.20;;;;;;;4.32;41.73;98313.66;10404305;28;20994;-64
2023/03/07 13:07:51;;;;;;;6.83;4.93;;;;;;;4.74;41.29;98306.94;10395634;28;20254;-63
2023/03/07 13:12:53;;;;;;;6.33;4.90;;;;;;;4.57;41.46;98312.41;10402449;28;20233;-61
2023/03/07 13:17:59;;;;;;;7.83;5.37;;;;;;;4.89;41.47;98304.31;10407856;28;20250;-63
2023/03/07 13:23:19;;;;;;;5.97;4.73;;;;;;;4.80;41.54;98308.06;10402905;28;20224;-63
2023/03/07 13:28:45;;;;;;;5.27;4.70;;;;;;;4.81;41.38;98299.09;10393206;28;20316;-63
2023/03/07 13:33:49;;;;;;;6.13;4.70;;;;;;;4.50;40.67;98306.19;10397729;28;20245;-63
2023/03/07 13:38:51;;;;;;;6.17;5.00;;;;;;;4.47;40.87;98311.03;10402666;28;20887;-63
2023/03/07 13:43:56;;;;;;;8.23;5.50;;;;;;;4.75;40.50;98316.56;10396304;28;20289;-62
2023/03/07 13:48:59;;;;;;;6.27;5.30;;;;;;;5.36;40.74;98305.69;10399261;28;20240;-63
2023/03/07 13:54:09;;;;;;;6.27;5.30;;;;;;;5.26;41.25;98331.69;10405018;28;20674;-61
2023/03/07 13:59:14;;;;;;;7.13;5.63;;;;;;;4.83;41.71;98331.53;10404604;28;20228;-63
2023/03/07 14:04:21;;;;;;;8.00;5.40;;;;;;;3.78;42.98;98325.97;10394765;28;20243;-63
2023/03/07 14:10:17;;;;;;;7.77;5.43;;;;;;;3.94;43.08;98358.63;10395662;28;20268;-62
2023/03/07 14:15:47;;;;;;;7.03;5.37;;;;;;;3.98;43.96;98350.13;10392394;28;20224;-63
2023/03/07 14:20:54;;;;;;;7.70;6.10;;;;;;;4.39;43.46;98331.31;10394862;28;20284;-64
2023/03/07 14:26:15;;;;;;;6.43;5.63;;;;;;;5.26;42.72;98283.97;10398974;28;20667;-63
2023/03/07 14:31:26;;;;;;;7.73;6.03;;;;;;;4.89;42.73;98289.22;10382726;28;20347;-63
2023/03/07 14:36:30;;;;;;;8.03;5.87;;;;;;;4.86;43.07;98292.25;10389019;28;20605;-63
2023/03/07 14:41:39;;;;;;;7.83;5.87;;;;;;;4.78;43.05;98284.41;10389017;28;20259;-62
2023/03/07 14:46:52;;;;;;;9.87;6.77;;;;;;;4.91;42.88;98286.38;10395787;28;20239;-63
2023/03/07 14:51:54;;;;;;;7.10;5.27;;;;;;;4.42;43.32;98278.97;10388122;28;20271;-63
2023/03/07 14:56:58;;;;;;;8.07;6.50;;;;;;;4.71;43.24;98289.59;10390363;28;20233;-66
2023/03/07 15:01:59;;;;;;;11.73;7.47;;;;;;;4.57;43.38;98290.41;10391632;28;20278;-64
2023/03/07 15:07:05;;;;;;;10.27;6.97;;;;;;;4.80;43.19;98284.22;10392739;28;20237;-64
2023/03/07 15:12:22;;;;;;;8.60;5.57;;;;;;;4.52;43.24;98282.19;10398284;28;20249;-64
2023/03/07 15:17:28;;;;;;;10.80;6.40;;;;;;;4.08;44.43;98288.19;10394165;28;20244;-63
2023/03/07 15:22:38;;;;;;;9.07;7.17;;;;;;;4.85;43.53;98269.41;10390218;28;20243;-65
2023/03/07 15:27:39;;;;;;;9.73;6.53;;;;;;;4.60;43.99;98268.84;10399282;28;20236;-63
2023/03/07 15:32:41;;;;;;;9.03;6.93;;;;;;;5.48;43.57;98234.41;10394093;28;20221;-66
2023/03/07 15:38:12;;;;;;;7.20;5.87;;;;;;;5.16;43.36;98251.63;10390970;28;20316;-66
2023/03/07 15:43:25;;;;;;;8.60;6.50;;;;;;;5.57;43.20;98222.66;10394505;28;20240;-65
2023/03/07 15:48:51;;;;;;;8.83;7.00;;;;;;;4.94;43.06;98248.91;10400569;28;20907;-63
2023/03/07 15:53:59;;;;;;;9.57;7.13;;;;;;;4.79;43.54;98264.00;10397478;28;20848;-63
2023/03/07 15:59:07;;;;;;;8.53;6.50;;;;;;;5.11;43.03;98249.50;10405315;28;20247;-63
2023/03/07 16:04:44;;;;;;;8.03;6.73;;;;;;;5.48;42.79;98221.94;10403595;28;20256;-62
2023/03/07 16:09:45;;;;;;;8.90;6.73;;;;;;;5.67;42.32;98212.59;10374639;28;20229;-63
2023/03/07 16:14:49;;;;;;;8.53;7.43;;;;;;;5.28;43.10;98231.53;10391388;22;20233;-38
2023/03/07 16:19:51;;;;;;;9.47;6.57;;;;;;;5.52;42.75;98215.28;10358603;28;20234;-39
2023/03/07 16:24:52;;;;;;;7.63;6.07;;;;;;;5.25;42.56;98230.09;10345202;28;20233;-38
2023/03/07 16:29:54;;;;;;;8.67;7.10;;;;;;;6.37;41.92;98195.91;10357086;28;20453;-36
2023/03/07 16:34:56;;;;;;;8.17;6.83;;;;;;;4.75;43.02;98240.50;10360392;28;20449;-37
2023/03/07 16:39:57;;;;;;;12.53;7.53;;;;;;;4.62;42.98;98253.59;10347456;28;20243;-40
2023/03/07 16:44:59;;;;;;;11.43;6.67;;;;;;;4.90;43.45;98245.00;10343539;28;20240;-36
2023/03/07 16:50:01;;;;;;;9.40;7.50;;;;;;;5.45;42.55;98195.81;10347686;28;20240;-36
2023/03/07 16:55:03;;;;;;;11.53;7.50;;;;;;;4.93;42.83;98244.63;10352796;28;20723;-37
2023/03/07 17:00:06;;;;;;;11.83;8.17;;;;;;;4.61;43.17;98256.41;10340679;28;20233;-36
2023/03/07 17:05:17;;;;;;;14.53;11.80;;;;;;;4.44;43.09;98261.91;10330250;28;20757;-39
2023/03/07 17:10:19;;;;;;;24.73;15.83;;;;;;;4.53;42.84;98260.00;10325423;28;20237;-40
2023/03/07 17:15:25;;;;;;;35.23;22.13;;;;;;;5.36;42.38;98239.38;10334021;28;20231;-38
2023/03/07 17:20:27;;;;;;;40.50;21.33;;;;;;;4.58;43.17;98278.81;10336928;28;20235;-37
2023/03/07 17:25:29;;;;;;;14.13;9.87;;;;;;;4.79;43.14;98283.38;10345131;28;20230;-39
2023/03/07 17:30:32;;;;;;;10.10;7.83;;;;;;;4.35;43.76;98300.06;10340947;28;20288;-38
2023/03/07 17:35:33;;;;;;;8.30;6.60;;;;;;;3.96;43.82;98306.31;10334873;28;20233;-37
2023/03/07 17:40:37;;;;;;;9.47;7.00;;;;;;;4.20;43.48;98302.66;10333478;28;20241;-41
2023/03/07 17:45:39;;;;;;;11.17;7.17;;;;;;;3.74;44.11;98324.66;10350036;28;20268;-37
2023/03/07 17:50:41;;;;;;;9.93;7.07;;;;;;;3.26;44.75;98324.78;10350964;28;20623;-39
2023/03/07 17:55:42;;;;;;;10.00;6.57;;;;;;;4.09;43.84;98316.34;10350678;28;20797;-40
2023/03/07 18:00:44;;;;;;;11.50;8.50;;;;;;;5.09;43.44;98294.78;10346679;28;20246;-39
2023/03/07 18:05:46;;;;;;;8.70;6.93;;;;;;;4.53;43.90;98321.75;10351618;28;20259;-38
2023/03/07 18:10:47;;;;;;;9.90;7.50;;;;;;;3.88;44.08;98325.72;10351593;28;20615;-39
2023/03/07 18:15:49;;;;;;;9.03;6.00;;;;;;;4.67;43.42;98317.44;10347703;28;20619;-36
2023/03/07 18:21:03;;;;;;;9.10;6.80;;;;;;;4.14;43.74;98346.56;10353989;28;20346;-37
2023/03/07 18:26:08;;;;;;;8.37;6.27;;;;;;;4.60;43.15;98321.84;10359204;28;20737;-40
2023/03/07 18:31:11;;;;;;;8.93;7.03;;;;;;;4.59;43.03;98338.72;10350109;28;20240;-36
2023/03/07 18:36:14;;;;;;;8.13;6.20;;;;;;;3.82;43.42;98359.03;10350889;28;20321;-35
2023/03/07 18:41:19;;;;;;;7.10;6.40;;;;;;;4.31;43.04;98352.53;10347233;28;20232;-35
2023/03/07 18:46:23;;;;;;;6.40;5.20;;;;;;;4.33;43.50;98357.69;10355261;28;20237;-36
2023/03/07 18:51:26;;;;;;;7.23;5.60;;;;;;;4.58;42.61;98345.06;10349165;28;20265;-38
2023/03/07 18:56:28;;;;;;;8.37;5.57;;;;;;;4.17;42.95;98362.09;10347782;28;20234;-35
2023/03/07 19:01:32;;;;;;;7.70;5.67;;;;;;;4.57;42.83;98349.50;10332682;28;20264;-36
2023/03/07 19:06:40;;;;;;;7.83;6.10;;;;;;;4.84;42.08;98327.88;10334490;28;20240;-36
2023/03/07 19:11:42;;;;;;;9.57;6.77;;;;;;;4.70;42.62;98345.44;10338585;28;20573;-41
2023/03/07 19:16:44;;;;;;;7.97;6.23;;;;;;;4.77;42.37;98343.69;10341616;28;20303;-36
2023/03/07 19:21:45;;;;;;;6.83;5.50;;;;;;;5.07;41.73;98339.22;10340538;28;20243;-37
2023/03/07 19:26:47;;;;;;;6.93;5.63;;;;;;;4.82;41.90;98351.09;10339257;28;20637;-37
2023/03/07 19:31:49;;;;;;;10.60;6.20;;;;;;;4.45;42.28;98382.75;10345776;28;20241;-36
2023/03/07 19:36:51;;;;;;;9.57;5.60;;;;;;;5.02;41.54;98380.56;10356504;28;20241;-36
2023/03/07 19:41:53;;;;;;;8.07;6.50;;;;;;;4.76;42.43;98387.94;10349730;28;20241;-36
2023/03/07 19:46:54;;;;;;;7.40;5.33;;;;;;;4.25;42.64;98392.97;10348339;28;20604;-36
2023/03/07 19:51:56;;;;;;;6.97;5.27;;;;;;;4.94;41.95;98371.66;10345967;28;20849;-39
2023/03/07 19:56:58;;;;;;;7.93;5.63;;;;;;;4.20;42.65;98388.22;10340817;28;20233;-36
2023/03/07 20:01:59;;;;;;;6.87;5.47;;;;;;;4.94;41.88;98386.75;10347930;28;20236;-37
2023/03/07 20:07:01;;;;;;;6.90;5.33;;;;;;;4.59;41.99;98394.38;10348540;28;20765;-39
2023/03/07 20:12:03;;;;;;;7.40;4.80;;;;;;;3.95;42.60;98416.69;10335779;28;20595;-38
2023/03/07 20:17:05;;;;;;;7.23;5.67;;;;;;;4.71;41.80;98387.66;10338402;28;20233;-37
2023/03/07 20:22:07;;;;;;;9.23;5.63;;;;;;;5.03;41.53;98390.97;10336207;28;20244;-35
2023/03/07 20:27:09;;;;;;;7.10;5.20;;;;;;;4.21;42.54;98418.16;10334939;28;20229;-37
2023/03/07 20:32:10;;;;;;;7.10;5.63;;;;;;;4.30;42.52;98410.97;10335184;28;20233;-37
2023/03/07 20:37:12;;;;;;;7.87;6.03;;;;;;;4.68;42.11;98405.75;10338300;28;20228;-37
2023/03/07 20:42:14;;;;;;;6.00;5.30;;;;;;;3.33;43.68;98409.53;10333689;28;20237;-37
2023/03/07 20:47:16;;;;;;;7.33;5.33;;;;;;;4.39;42.80;98383.47;10335972;28;20233;-39
2023/03/07 20:52:18;;;;;;;7.13;5.57;;;;;;;4.83;42.54;98368.63;10346200;28;20234;-39
2023/03/07 20:57:19;;;;;;;6.43;5.07;;;;;;;3.56;42.94;98417.53;10362010;28;20328;-37
2023/03/07 21:02:21;;;;;;;8.10;5.60;;;;;;;4.34;42.63;98420.22;10349591;28;20229;-38
2023/03/07 21:07:23;;;;;;;7.33;5.80;;;;;;;5.05;41.49;98393.44;10346052;28;20241;-36
2023/03/07 21:12:25;;;;;;;11.40;6.00;;;;;;;4.79;41.73;98415.06;10352501;28;20244;-37
2023/03/07 21:17:26;;;;;;;8.67;6.53;;;;;;;4.93;41.43;98407.16;10347574;28;20238;-40
2023/03/07 21:22:28;;;;;;;9.13;6.37;;;;;;;4.71;41.86;98423.91;10346907;28;20245;-38
2023/03/07 21:27:30;;;;;;;8.37;6.00;;;;;;;5.08;41.43;98398.38;10333077;28;20237;-39
2023/03/07 21:32:31;;;;;;;7.23;5.63;;;;;;;4.85;41.62;98422.31;10335824;28;20627;-37
2023/03/07 21:37:34;;;;;;;8.37;5.90;;;;;;;5.02;41.81;98410.53;10338222;28;20650;-38
2023/03/07 21:42:36;;;;;;;5.50;4.63;;;;;;;3.30;42.66;98440.78;10325776;28;20241;-37
2023/03/07 21:47:37;;;;;;;6.70;5.03;;;;;;;4.11;41.93;98449.34;10345257;28;20241;-38
2023/03/07 21:52:39;;;;;;;7.80;6.57;;;;;;;4.94;41.36;98413.25;10344891;28;20564;-37
2023/03/07 21:57:42;;;;;;;9.30;6.63;;;;;;;4.54;41.25;98441.78;10334547;28;20623;-40
2023/03/07 22:02:44;;;;;;;7.33;5.67;;;;;;;4.27;41.88;98461.63;10330959;28;20246;-39
2023/03/07 22:07:48;;;;;;;7.83;5.90;;;;;;;4.09;41.99;98483.13;10344357;28;20242;-35
2023/03/07 22:12:49;;;;;;;6.53;5.47;;;;;;;4.91;40.95;98445.44;10339728;28;20238;-38
2023/03/07 22:17:51;;;;;;;8.33;6.23;;;;;;;4.35;41.37;98472.22;10333677;28;20226;-35
2023/03/07 22:22:53;;;;;;;8.70;6.50;;;;;;;4.61;41.19;98453.31;10339850;28;20248;-39
2023/03/07 22:27:55;;;;;;;9.03;6.23;;;;;;;4.71;41.27;98431.84;10332509;28;20245;-39
2023/03/07 22:32:56;;;;;;;8.07;6.07;;;;;;;3.84;41.87;98468.16;10333060;28;20607;-39
2023/03/07 22:37:58;;;;;;;8.80;6.50;;;;;;;4.15;41.79;98463.88;10336324;28;20234;-37
2023/03/07 22:43:00;;;;;;;8.77;6.20;;;;;;;4.17;41.83;98446.81;10332506;28;20230;-39
2023/03/07 22:48:02;;;;;;;8.03;6.53;;;;;;;4.77;41.30;98426.66;10336965;28;20244;-39
2023/03/07 22:53:04;;;;;;;6.73;5.53;;;;;;;4.33;41.53;98448.56;10346625;28;20244;-37
2023/03/07 22:58:05;;;;;;;8.83;7.17;;;;;;;4.28;41.88;98455.34;10345658;28;20329;-39
2023/03/07 23:03:07;;;;;;;8.17;6.23;;;;;;;3.95;42.49;98461.69;10348645;28;20239;-38
2023/03/07 23:08:09;;;;;;;11.43;7.03;;;;;;;4.25;42.42;98418.63;10349289;28;20237;-38
2023/03/07 23:13:11;;;;;;;9.07;7.13;;;;;;;3.22;43.32;98476.81;10349961;28;20242;-37
2023/03/07 23:18:12;;;;;;;8.33;6.83;;;;;;;4.10;42.71;98423.84;10347254;28;20352;-39
2023/03/07 23:23:14;;;;;;;8.60;5.87;;;;;;;3.58;43.05;98436.72;10349615;28;20422;-39
2023/03/07 23:28:16;;;;;;;9.17;7.17;;;;;;;4.61;42.21;98379.13;10345088;28;20250;-37
2023/03/07 23:33:17;;;;;;;9.87;7.27;;;;;;;4.26;42.84;98412.34;10348783;28;20244;-38
2023/03/07 23:38:19;;;;;;;8.90;6.83;;;;;;;4.09;42.98;98428.34;10349697;28;20237;-39
2023/03/07 23:43:21;;;;;;;9.40;6.77;;;;;;;3.79;43.48;98438.75;10347791;28;20253;-39